createdAt,value
2023-01-31T00:01:09.132Z,23.57
2023-01-31T00:03:37.757Z,23.57
2023-01-31T00:06:13.685Z,23.57
2023-01-31T00:08:40.783Z,23.56
2023-01-31T00:11:07.763Z,23.55
2023-01-31T00:13:35.248Z,23.55
2023-01-31T00:18:29.542Z,23.52
2023-01-31T00:20:57.838Z,23.50
2023-01-31T00:23:24.840Z,23.49
2023-01-31T00:25:51.668Z,23.49
2023-01-31T00:28:18.551Z,23.48
2023-01-31T00:30:45.390Z,23.48
2023-01-31T00:33:12.265Z,23.48
2023-01-31T00:35:41.024Z,23.48
2023-01-31T00:38:09.307Z,23.46
2023-01-31T00:40:36.486Z,23.45
2023-01-31T00:43:03.721Z,23.44
2023-01-31T00:45:30.620Z,23.44
2023-01-31T00:47:57.526Z,23.42
2023-01-31T00:50:24.471Z,23.42
2023-01-31T00:52:51.325Z,23.42
2023-01-31T00:55:19.795Z,23.40
2023-01-31T00:57:46.806Z,23.39
2023-01-31T01:00:14.776Z,23.38
2023-01-31T01:02:41.821Z,23.38
2023-01-31T01:05:09.189Z,23.37
2023-01-31T01:07:36.634Z,23.37
2023-01-31T01:10:03.925Z,23.36
2023-01-31T01:12:32.284Z,23.35
2023-01-31T01:14:59.093Z,23.35
2023-01-31T01:17:26.746Z,23.34
2023-01-31T01:19:53.552Z,23.34
2023-01-31T01:22:20.414Z,23.31
2023-01-31T01:24:47.314Z,23.31
2023-01-31T01:27:15.025Z,23.31
2023-01-31T01:29:43.183Z,23.29
2023-01-31T01:32:10.236Z,23.29
2023-01-31T01:34:37.882Z,23.29
2023-01-31T01:37:11.956Z,23.29
2023-01-31T01:39:39.141Z,23.28
2023-01-31T01:42:08.208Z,23.27
2023-01-31T01:44:49.868Z,23.25
2023-01-31T01:47:35.072Z,23.24
2023-01-31T01:50:07.782Z,23.23
2023-01-31T01:52:39.335Z,23.22
2023-01-31T01:55:16.845Z,23.20
2023-01-31T01:57:46.341Z,23.20
2023-01-31T02:00:19.155Z,23.20
2023-01-31T02:02:47.345Z,23.22
2023-01-31T02:05:18.473Z,23.20
2023-01-31T02:07:46.080Z,23.19
2023-01-31T02:10:17.880Z,23.18
2023-01-31T02:12:46.286Z,23.17
2023-01-31T02:15:14.859Z,23.18
2023-01-31T02:17:41.898Z,23.18
2023-01-31T02:20:38.111Z,23.17
2023-01-31T02:23:38.300Z,23.15
2023-01-31T02:26:37.947Z,23.14
2023-01-31T02:29:28.110Z,23.13
2023-01-31T02:32:24.977Z,23.11
2023-01-31T02:35:02.121Z,23.10
2023-01-31T02:37:41.050Z,23.09
2023-01-31T02:40:18.017Z,23.10
2023-01-31T02:42:57.352Z,23.09
2023-01-31T02:45:36.203Z,23.09
2023-01-31T02:48:15.899Z,23.08
2023-01-31T02:50:53.386Z,23.08
2023-01-31T02:53:24.445Z,23.09
2023-01-31T02:56:14.441Z,23.08
2023-01-31T02:58:44.802Z,23.07
2023-01-31T03:01:16.841Z,23.06
2023-01-31T03:03:47.202Z,23.07
2023-01-31T03:06:59.736Z,23.06
2023-01-31T03:09:41.619Z,23.05
2023-01-31T03:12:34.549Z,23.02
2023-01-31T03:15:15.227Z,23.03
2023-01-31T03:17:55.071Z,23.03
2023-01-31T03:20:29.910Z,23.03
2023-01-31T03:23:00.670Z,23.01
2023-01-31T03:25:31.615Z,23.02
2023-01-31T03:28:06.482Z,23.01
2023-01-31T03:30:37.625Z,22.99
2023-01-31T03:33:12.594Z,22.99
2023-01-31T03:35:46.910Z,23.00
2023-01-31T03:38:17.777Z,23.00
2023-01-31T03:40:54.204Z,23.00
2023-01-31T03:43:27.654Z,22.99
2023-01-31T03:46:01.713Z,22.96
2023-01-31T03:48:32.876Z,22.98
2023-01-31T03:51:06.449Z,22.98
2023-01-31T03:53:41.457Z,22.98
2023-01-31T03:56:14.568Z,22.98
2023-01-31T03:58:45.706Z,22.97
2023-01-31T04:01:15.323Z,22.97
2023-01-31T04:03:46.176Z,22.96
2023-01-31T04:06:15.318Z,22.97
2023-01-31T04:08:43.628Z,22.97
2023-01-31T04:11:13.943Z,22.96
2023-01-31T04:13:41.866Z,22.96
2023-01-31T04:16:08.712Z,22.95
2023-01-31T04:18:37.757Z,22.96
2023-01-31T04:21:05.797Z,22.95
2023-01-31T04:23:34.036Z,22.95
2023-01-31T04:26:01.119Z,22.94
2023-01-31T04:28:28.215Z,22.93
2023-01-31T04:30:56.402Z,22.92
2023-01-31T04:33:23.999Z,22.93
2023-01-31T04:35:51.099Z,22.92
2023-01-31T04:38:18.052Z,22.92
2023-01-31T04:40:46.448Z,22.92
2023-01-31T04:43:13.956Z,22.92
2023-01-31T04:45:40.790Z,22.92
2023-01-31T04:48:07.862Z,22.92
2023-01-31T04:50:34.966Z,22.92
2023-01-31T04:53:01.844Z,22.92
2023-01-31T04:55:28.733Z,22.90
2023-01-31T04:57:56.992Z,22.91
2023-01-31T05:00:24.019Z,22.90
2023-01-31T05:02:50.986Z,22.90
2023-01-31T05:05:18.306Z,22.89
2023-01-31T05:07:45.392Z,22.89
2023-01-31T05:10:12.950Z,22.90
2023-01-31T05:12:40.092Z,22.90
2023-01-31T05:15:11.126Z,22.89
2023-01-31T05:17:38.411Z,22.87
2023-01-31T05:20:06.579Z,22.86
2023-01-31T05:22:33.976Z,22.87
2023-01-31T05:25:00.874Z,22.87
2023-01-31T05:27:27.872Z,22.86
2023-01-31T05:29:55.094Z,22.85
2023-01-31T05:32:23.507Z,22.84
2023-01-31T05:34:50.342Z,22.85
2023-01-31T05:37:17.229Z,22.84
2023-01-31T05:39:44.059Z,22.86
2023-01-31T05:42:10.958Z,22.90
2023-01-31T05:44:37.818Z,22.94
2023-01-31T05:47:04.844Z,22.98
2023-01-31T05:49:33.674Z,23.03
2023-01-31T05:52:00.975Z,23.07
2023-01-31T05:54:28.206Z,23.12
2023-01-31T05:56:55.150Z,23.17
2023-01-31T05:59:22.012Z,23.24
2023-01-31T06:01:49.044Z,23.33
2023-01-31T06:04:16.165Z,23.41
2023-01-31T06:06:45.462Z,23.48
2023-01-31T06:09:12.479Z,23.57
2023-01-31T06:11:39.424Z,23.65
2023-01-31T06:14:06.743Z,23.76
2023-01-31T06:16:33.703Z,23.86
2023-01-31T06:19:00.650Z,23.95
2023-01-31T06:21:27.991Z,24.04
2023-01-31T06:23:56.358Z,24.11
2023-01-31T06:26:23.341Z,24.20
2023-01-31T06:28:50.274Z,24.29
2023-01-31T06:31:17.207Z,24.37
2023-01-31T06:33:47.784Z,24.43
2023-01-31T06:36:18.420Z,24.47
2023-01-31T06:38:49.091Z,24.52
2023-01-31T06:41:17.368Z,24.55
2023-01-31T06:43:44.253Z,24.56
2023-01-31T06:46:11.552Z,24.56
2023-01-31T06:48:38.423Z,24.54
2023-01-31T06:51:05.622Z,24.56
2023-01-31T06:53:32.771Z,24.55
2023-01-31T06:55:59.666Z,24.53
2023-01-31T06:58:28.320Z,24.50
2023-01-31T07:00:55.212Z,24.47
2023-01-31T07:03:22.044Z,24.44
2023-01-31T07:05:48.969Z,24.40
2023-01-31T07:08:15.955Z,24.37
2023-01-31T07:10:42.813Z,24.35
2023-01-31T07:13:09.631Z,24.31
2023-01-31T07:15:37.837Z,24.28
2023-01-31T07:18:06.255Z,24.25
2023-01-31T07:20:33.229Z,24.22
2023-01-31T07:23:00.117Z,24.19
2023-01-31T07:25:27.425Z,24.20
2023-01-31T07:27:54.263Z,24.14
2023-01-31T07:30:22.375Z,24.12
2023-01-31T07:32:51.156Z,24.09
2023-01-31T07:35:18.494Z,24.07
2023-01-31T07:37:46.099Z,24.03
2023-01-31T07:40:15.228Z,23.99
2023-01-31T07:42:42.296Z,23.99
2023-01-31T07:45:22.967Z,23.98
2023-01-31T07:47:52.087Z,23.96
2023-01-31T07:50:20.336Z,23.95
2023-01-31T07:52:49.188Z,23.93
2023-01-31T07:55:16.435Z,23.90
2023-01-31T07:57:43.271Z,23.87
2023-01-31T08:00:31.920Z,23.81
2023-01-31T08:03:18.791Z,23.77
2023-01-31T08:05:46.491Z,23.74
2023-01-31T08:08:13.711Z,23.71
2023-01-31T08:10:40.714Z,23.68
2023-01-31T08:13:07.663Z,23.66
2023-01-31T08:15:34.588Z,23.63
2023-01-31T08:18:05.931Z,23.62
2023-01-31T08:20:33.207Z,23.58
2023-01-31T08:23:00.256Z,23.57
2023-01-31T08:25:30.565Z,23.56
2023-01-31T08:27:57.957Z,23.55
2023-01-31T08:30:24.895Z,23.53
2023-01-31T08:32:51.764Z,23.52
2023-01-31T08:35:20.377Z,23.50
2023-01-31T08:37:47.345Z,23.47
2023-01-31T08:40:14.382Z,23.46
2023-01-31T08:42:41.249Z,23.43
2023-01-31T08:45:08.896Z,23.42
2023-01-31T08:47:36.653Z,23.40
2023-01-31T08:50:03.684Z,23.39
2023-01-31T08:52:35.536Z,23.38
2023-01-31T08:55:02.488Z,23.36
2023-01-31T08:57:30.234Z,23.32
2023-01-31T08:59:57.450Z,23.33
2023-01-31T09:02:24.294Z,23.32
2023-01-31T09:04:51.173Z,23.30
2023-01-31T09:07:21.708Z,23.29
2023-01-31T09:09:50.002Z,23.27
2023-01-31T09:12:16.844Z,23.26
2023-01-31T09:14:43.738Z,23.25
2023-01-31T09:17:10.908Z,23.24
2023-01-31T09:19:38.730Z,23.22
2023-01-31T09:22:05.699Z,23.20
2023-01-31T09:24:32.636Z,23.18
2023-01-31T09:27:00.839Z,23.22
2023-01-31T09:29:28.681Z,23.24
2023-01-31T09:31:55.713Z,23.28
2023-01-31T09:34:23.087Z,23.34
2023-01-31T09:36:49.923Z,23.38
2023-01-31T09:39:17.322Z,23.42
2023-01-31T09:41:47.653Z,23.48
2023-01-31T09:44:22.657Z,23.54
2023-01-31T09:46:54.381Z,23.60
2023-01-31T09:49:25.602Z,23.66
2023-01-31T09:51:55.933Z,23.74
2023-01-31T09:54:28.648Z,23.81
2023-01-31T09:57:04.675Z,23.89
2023-01-31T09:59:43.129Z,23.96
2023-01-31T10:02:23.120Z,24.05
2023-01-31T10:05:03.909Z,24.10
2023-01-31T10:07:34.138Z,24.15
2023-01-31T10:10:09.012Z,24.21
2023-01-31T10:12:42.015Z,24.28
2023-01-31T10:15:17.091Z,24.34
2023-01-31T10:17:48.256Z,24.40
2023-01-31T10:20:20.807Z,24.44
2023-01-31T10:22:56.561Z,24.48
2023-01-31T10:25:27.605Z,24.53
2023-01-31T10:27:57.462Z,24.56
2023-01-31T10:30:31.686Z,24.58
2023-01-31T10:33:03.909Z,24.61
2023-01-31T10:35:36.284Z,24.63
2023-01-31T10:38:12.242Z,24.66
2023-01-31T10:40:42.840Z,24.70
2023-01-31T10:43:18.050Z,24.73
2023-01-31T10:45:46.462Z,24.75
2023-01-31T10:48:19.516Z,24.75
2023-01-31T10:50:58.322Z,24.76
2023-01-31T10:53:39.256Z,24.77
2023-01-31T10:56:08.331Z,24.79
2023-01-31T10:58:36.523Z,24.80
2023-01-31T11:01:08.491Z,24.82
2023-01-31T11:03:35.525Z,24.82
2023-01-31T11:06:02.484Z,24.84
2023-01-31T11:08:35.090Z,24.85
2023-01-31T11:11:08.331Z,24.84
2023-01-31T11:13:35.333Z,24.86
2023-01-31T11:16:04.268Z,24.86
2023-01-31T11:18:35.371Z,24.87
2023-01-31T11:21:03.530Z,24.88
2023-01-31T11:23:34.331Z,24.89
2023-01-31T11:26:01.781Z,24.90
2023-01-31T11:28:35.675Z,24.90
2023-01-31T11:31:04.669Z,24.89
2023-01-31T11:33:47.652Z,24.89
2023-01-31T11:36:16.853Z,24.89
2023-01-31T11:38:43.948Z,24.89
2023-01-31T11:41:33.163Z,24.89
2023-01-31T11:44:13.132Z,24.88
2023-01-31T11:46:48.415Z,24.86
2023-01-31T11:49:27.610Z,24.86
2023-01-31T11:51:55.114Z,24.86
2023-01-31T11:54:26.329Z,24.87
2023-01-31T11:56:55.645Z,24.85
2023-01-31T11:59:26.608Z,24.88
2023-01-31T12:01:56.491Z,24.86
2023-01-31T12:04:30.189Z,24.86
2023-01-31T12:07:03.211Z,24.86
2023-01-31T12:09:41.841Z,24.87
2023-01-31T12:12:24.296Z,24.85
2023-01-31T12:14:51.773Z,24.85
2023-01-31T12:17:20.473Z,24.85
2023-01-31T12:20:14.207Z,24.83
2023-01-31T12:22:59.654Z,24.83
2023-01-31T12:25:46.397Z,24.84
2023-01-31T12:28:24.334Z,24.84
2023-01-31T12:31:05.388Z,24.83
2023-01-31T12:33:45.868Z,24.83
2023-01-31T12:36:29.081Z,24.84
2023-01-31T12:39:22.488Z,24.83
2023-01-31T12:42:04.327Z,24.83
2023-01-31T12:44:43.484Z,24.84
2023-01-31T12:47:36.260Z,24.84
2023-01-31T12:50:18.187Z,24.83
2023-01-31T12:52:56.716Z,24.84
2023-01-31T12:55:32.375Z,24.85
2023-01-31T12:58:17.364Z,24.85
2023-01-31T13:00:55.086Z,24.85
2023-01-31T13:03:38.839Z,24.86
2023-01-31T13:06:15.432Z,24.84
2023-01-31T13:09:06.444Z,24.85
2023-01-31T13:11:39.464Z,24.86
2023-01-31T13:14:14.579Z,24.85
2023-01-31T13:16:44.017Z,24.85
2023-01-31T13:19:18.566Z,24.86
2023-01-31T13:21:51.830Z,24.86
2023-01-31T13:24:24.397Z,24.85
2023-01-31T13:26:58.108Z,24.86
2023-01-31T13:29:29.872Z,24.86
2023-01-31T13:32:01.724Z,24.85
2023-01-31T13:34:34.454Z,24.84
2023-01-31T13:37:05.842Z,24.85
2023-01-31T13:39:39.685Z,24.84
2023-01-31T13:42:06.924Z,24.84
2023-01-31T13:44:33.836Z,24.84
2023-01-31T13:47:06.409Z,24.84
2023-01-31T13:49:38.048Z,24.84
2023-01-31T13:52:12.877Z,24.84
2023-01-31T13:54:45.363Z,24.84
2023-01-31T13:57:24.097Z,24.84
2023-01-31T13:59:54.676Z,24.84
2023-01-31T14:02:22.140Z,24.84
2023-01-31T14:04:49.234Z,24.83
2023-01-31T14:07:20.762Z,24.83
2023-01-31T14:10:27.542Z,24.83
2023-01-31T14:13:26.876Z,24.80
2023-01-31T14:15:55.250Z,24.79
2023-01-31T14:18:39.245Z,24.79
2023-01-31T14:21:39.592Z,24.78
2023-01-31T14:24:19.699Z,24.76
2023-01-31T14:26:54.882Z,24.75
2023-01-31T14:29:24.350Z,24.76
2023-01-31T14:31:54.001Z,24.75
2023-01-31T14:34:24.504Z,24.74
2023-01-31T14:37:03.239Z,24.75
2023-01-31T14:39:59.938Z,24.75
2023-01-31T14:42:52.904Z,24.73
2023-01-31T14:45:42.037Z,24.70
2023-01-31T14:48:21.343Z,24.71
2023-01-31T14:51:09.527Z,24.70
2023-01-31T14:54:03.201Z,24.69
2023-01-31T14:56:53.875Z,24.68
2023-01-31T14:59:29.398Z,24.66
2023-01-31T15:01:57.540Z,24.67
2023-01-31T15:04:27.409Z,24.67
2023-01-31T15:06:56.809Z,24.67
2023-01-31T15:09:37.456Z,24.66
2023-01-31T15:12:07.845Z,24.67
2023-01-31T15:14:41.337Z,24.66
2023-01-31T15:17:32.052Z,24.67
2023-01-31T15:20:06.718Z,24.66
2023-01-31T15:22:40.050Z,24.66
2023-01-31T15:25:21.043Z,24.66
2023-01-31T15:27:48.949Z,24.66
2023-01-31T15:30:19.985Z,24.65
2023-01-31T15:32:53.732Z,24.65
2023-01-31T15:35:23.998Z,24.65
2023-01-31T15:37:58.347Z,24.65
2023-01-31T15:40:26.206Z,24.65
2023-01-31T15:42:53.081Z,24.64
2023-01-31T15:45:23.766Z,24.64
2023-01-31T15:48:01.639Z,24.64
2023-01-31T15:50:31.036Z,24.64
2023-01-31T15:53:03.489Z,24.64
2023-01-31T15:55:31.169Z,24.64
2023-01-31T15:58:02.142Z,24.63
2023-01-31T16:00:33.035Z,24.64
2023-01-31T16:03:00.955Z,24.64
2023-01-31T16:05:31.636Z,24.63
2023-01-31T16:07:59.828Z,24.64
2023-01-31T16:10:28.287Z,24.62
2023-01-31T16:12:57.356Z,24.62
2023-01-31T16:15:26.531Z,24.62
2023-01-31T16:17:58.414Z,24.63
2023-01-31T16:20:50.440Z,24.62
2023-01-31T16:23:30.232Z,24.63
2023-01-31T16:26:06.979Z,24.62
2023-01-31T16:28:39.329Z,24.63
2023-01-31T16:31:09.071Z,24.63
2023-01-31T16:33:39.262Z,24.62
2023-01-31T16:36:14.344Z,24.62
2023-01-31T16:38:45.675Z,24.60
2023-01-31T16:41:14.529Z,24.62
2023-01-31T16:43:43.323Z,24.61
2023-01-31T16:46:20.699Z,24.62
2023-01-31T16:49:03.434Z,24.62
2023-01-31T16:51:44.407Z,24.61
2023-01-31T16:54:17.695Z,24.61
2023-01-31T16:56:45.407Z,24.60
2023-01-31T16:59:48.598Z,24.59
2023-01-31T17:02:23.011Z,24.58
2023-01-31T17:04:53.790Z,24.57
2023-01-31T17:07:23.382Z,24.58
2023-01-31T17:09:54.530Z,24.58
2023-01-31T17:12:24.634Z,24.58
2023-01-31T17:15:00.170Z,24.58
2023-01-31T17:17:32.882Z,24.57
2023-01-31T17:20:01.536Z,24.58
2023-01-31T17:22:28.465Z,24.57
2023-01-31T17:24:55.527Z,24.56
2023-01-31T17:27:23.058Z,24.56
2023-01-31T17:29:49.929Z,24.56
2023-01-31T17:32:18.576Z,24.57
2023-01-31T17:34:48.278Z,24.57
2023-01-31T17:37:20.794Z,24.55
2023-01-31T17:39:50.666Z,24.56
2023-01-31T17:42:20.520Z,24.56
2023-01-31T17:44:47.625Z,24.56
2023-01-31T17:47:15.148Z,24.56
2023-01-31T17:49:42.075Z,24.58
2023-01-31T17:52:09.048Z,24.59
2023-01-31T17:54:37.439Z,24.56
2023-01-31T17:57:04.502Z,24.57
2023-01-31T17:59:31.429Z,24.56
2023-01-31T18:02:00.459Z,24.58
2023-01-31T18:04:27.373Z,24.59
2023-01-31T18:06:54.577Z,24.59
2023-01-31T18:09:21.473Z,24.58
2023-01-31T18:11:50.207Z,24.57
2023-01-31T18:14:17.162Z,24.57
2023-01-31T18:16:44.062Z,24.57
2023-01-31T18:19:11.716Z,24.59
2023-01-31T18:21:43.893Z,24.59
2023-01-31T18:24:14.069Z,24.59
2023-01-31T18:26:40.960Z,24.60
2023-01-31T18:29:09.239Z,24.59
2023-01-31T18:31:36.226Z,24.60
2023-01-31T18:34:03.173Z,24.60
2023-01-31T18:36:30.009Z,24.60
2023-01-31T18:38:56.825Z,24.60
2023-01-31T18:41:23.770Z,24.62
2023-01-31T18:43:50.677Z,24.61
2023-01-31T18:46:19.498Z,24.62
2023-01-31T18:48:46.529Z,24.63
2023-01-31T18:51:14.978Z,24.63
2023-01-31T18:53:43.809Z,24.64
2023-01-31T18:56:12.923Z,24.65
2023-01-31T18:58:41.341Z,24.65
2023-01-31T19:01:10.049Z,24.66
2023-01-31T19:03:39.519Z,24.65
2023-01-31T19:06:08.074Z,24.66
2023-01-31T19:08:35.063Z,24.65
2023-01-31T19:11:07.570Z,24.65
2023-01-31T19:13:34.876Z,24.66
2023-01-31T19:16:03.704Z,24.66
2023-01-31T19:18:30.684Z,24.67
2023-01-31T19:20:59.165Z,24.66
2023-01-31T19:23:26.754Z,24.66
2023-01-31T19:25:53.910Z,24.67
2023-01-31T19:28:23.215Z,24.67
2023-01-31T19:30:51.476Z,24.68
2023-01-31T19:33:18.965Z,24.70
2023-01-31T19:35:46.236Z,24.71
2023-01-31T19:38:14.555Z,24.73
2023-01-31T19:40:42.387Z,24.73
2023-01-31T19:43:09.312Z,24.77
2023-01-31T19:45:36.387Z,24.79
2023-01-31T19:48:03.405Z,24.84
2023-01-31T19:50:30.365Z,24.85
2023-01-31T19:52:57.156Z,24.89
2023-01-31T19:55:25.456Z,24.92
2023-01-31T19:57:52.324Z,24.93
2023-01-31T20:00:19.594Z,24.93
2023-01-31T20:02:46.434Z,24.93
2023-01-31T20:05:13.711Z,24.93
2023-01-31T20:07:42.676Z,24.92
2023-01-31T20:10:11.817Z,24.91
2023-01-31T20:12:40.204Z,24.92
2023-01-31T20:15:08.447Z,24.94
2023-01-31T20:17:35.263Z,24.94
2023-01-31T20:20:03.911Z,24.93
2023-01-31T20:22:30.772Z,24.92
2023-01-31T20:24:57.738Z,24.93
2023-01-31T20:27:25.283Z,24.92
2023-01-31T20:29:53.650Z,24.93
2023-01-31T20:32:20.584Z,24.91
2023-01-31T20:34:47.539Z,24.91
2023-01-31T20:37:14.453Z,24.91
2023-01-31T20:39:41.763Z,24.89
2023-01-31T20:42:10.565Z,24.88
2023-01-31T20:44:37.757Z,24.87
2023-01-31T20:47:06.348Z,24.83
2023-01-31T20:49:33.205Z,24.78
2023-01-31T20:52:00.099Z,24.73
2023-01-31T20:54:26.964Z,24.68
2023-01-31T20:56:53.807Z,24.65
2023-01-31T20:59:20.619Z,24.60
2023-01-31T21:01:47.534Z,24.57
2023-01-31T21:04:15.993Z,24.53
2023-01-31T21:06:42.979Z,24.50
2023-01-31T21:09:10.073Z,24.46
2023-01-31T21:11:36.964Z,24.45
2023-01-31T21:14:04.029Z,24.43
2023-01-31T21:16:30.981Z,24.41
2023-01-31T21:18:58.138Z,24.38
2023-01-31T21:21:26.419Z,24.36
2023-01-31T21:23:55.251Z,24.32
2023-01-31T21:26:25.613Z,24.30
2023-01-31T21:28:53.347Z,24.28
2023-01-31T21:31:20.859Z,24.22
2023-01-31T21:33:49.001Z,24.20
2023-01-31T21:36:17.585Z,24.19
2023-01-31T21:38:45.977Z,24.18
2023-01-31T21:41:33.897Z,24.18
2023-01-31T21:44:00.783Z,24.15
2023-01-31T21:46:27.921Z,24.13
2023-01-31T21:48:55.439Z,24.12
2023-01-31T21:51:24.626Z,24.11
2023-01-31T21:53:53.519Z,24.09
2023-01-31T21:56:22.172Z,24.07
2023-01-31T21:58:49.820Z,24.06
2023-01-31T22:01:19.332Z,24.07
2023-01-31T22:03:50.790Z,24.07
2023-01-31T22:06:18.588Z,24.07
2023-01-31T22:08:45.731Z,24.02
2023-01-31T22:11:15.060Z,24.00
2023-01-31T22:13:45.198Z,23.99
2023-01-31T22:16:13.790Z,23.97
2023-01-31T22:18:42.649Z,23.96
2023-01-31T22:21:11.762Z,23.95
2023-01-31T22:23:40.343Z,23.96
2023-01-31T22:26:09.521Z,23.94
2023-01-31T22:28:38.643Z,23.89
2023-01-31T22:31:07.181Z,23.88
2023-01-31T22:33:36.091Z,23.84
2023-01-31T22:36:03.761Z,23.80
2023-01-31T22:38:30.602Z,23.82
2023-01-31T22:40:58.416Z,23.81
2023-01-31T22:43:25.772Z,23.80
2023-01-31T22:45:56.596Z,23.78
2023-01-31T22:48:24.444Z,23.77
2023-01-31T22:50:55.293Z,23.75
2023-01-31T22:53:22.273Z,23.72
2023-01-31T22:55:49.247Z,23.71
2023-01-31T22:58:16.147Z,23.69
2023-01-31T23:00:43.062Z,23.69
2023-01-31T23:03:11.336Z,23.68
2023-01-31T23:05:40.196Z,23.66
2023-01-31T23:08:07.142Z,23.65
2023-01-31T23:10:34.046Z,23.61
2023-01-31T23:13:00.912Z,23.61
2023-01-31T23:15:27.859Z,23.58
2023-01-31T23:17:54.729Z,23.58
2023-01-31T23:20:23.241Z,23.56
2023-01-31T23:22:55.517Z,23.58
2023-01-31T23:25:24.013Z,23.54
2023-01-31T23:27:50.912Z,23.53
2023-01-31T23:30:19.698Z,23.55
2023-01-31T23:32:46.705Z,23.51
2023-01-31T23:35:13.712Z,23.51
2023-01-31T23:37:41.963Z,23.50
2023-01-31T23:40:10.170Z,23.47
2023-01-31T23:42:37.046Z,23.46
2023-01-31T23:45:04.625Z,23.46
2023-01-31T23:47:31.428Z,23.45
2023-01-31T23:49:58.262Z,23.43
2023-01-31T23:52:25.102Z,23.42
2023-01-31T23:54:53.386Z,23.41
2023-01-31T23:57:20.253Z,23.39
2023-01-31T23:59:47.354Z,23.40
